sensor_id;sensor_type;location;lat;lon;timestamp;P1;P2;P0
47741;PMS5003;33504;52.066;6.096;2023-05-10T00:02:06;17;16;
47741;PMS5003;33504;52.066;6.096;2023-05-10T00:04:34;18;17;
47741;PMS5003;33504;52.066;6.096;2023-05-10T00:07:01;14;14;
47741;PMS5003;33504;52.066;6.096;2023-05-10T00:09:28;16;15;
47741;PMS5003;33504;52.066;6.096;2023-05-10T00:11:55;16;14;
47741;PMS5003;33504;52.066;6.096;2023-05-10T00:14:22;19;16;
47741;PMS5003;33504;52.066;6.096;2023-05-10T00:16:49;20;15;
47741;PMS5003;33504;52.066;6.096;2023-05-10T00:19:16;15;15;
47741;PMS5003;33504;52.066;6.096;2023-05-10T00:21:43;17;17;
47741;PMS5003;33504;52.066;6.096;2023-05-10T00:24:10;18;17;
47741;PMS5003;33504;52.066;6.096;2023-05-10T00:26:37;19;17;
47741;PMS5003;33504;52.066;6.096;2023-05-10T00:29:04;21;19;
47741;PMS5003;33504;52.066;6.096;2023-05-10T00:31:31;21;20;
47741;PMS5003;33504;52.066;6.096;2023-05-10T00:33:58;15;15;
47741;PMS5003;33504;52.066;6.096;2023-05-10T00:36:25;20;20;
47741;PMS5003;33504;52.066;6.096;2023-05-10T00:38:52;17;17;
47741;PMS5003;33504;52.066;6.096;2023-05-10T00:41:19;17;16;
47741;PMS5003;33504;52.066;6.096;2023-05-10T00:43:46;20;20;
47741;PMS5003;33504;52.066;6.096;2023-05-10T00:46:13;22;21;
47741;PMS5003;33504;52.066;6.096;2023-05-10T00:48:41;20;19;
47741;PMS5003;33504;52.066;6.096;2023-05-10T00:51:10;18;17;
47741;PMS5003;33504;52.066;6.096;2023-05-10T00:53:37;22;22;
47741;PMS5003;33504;52.066;6.096;2023-05-10T00:56:04;20;18;
47741;PMS5003;33504;52.066;6.096;2023-05-10T00:58:31;21;20;
47741;PMS5003;33504;52.066;6.096;2023-05-10T01:00:58;20;19;
47741;PMS5003;33504;52.066;6.096;2023-05-10T01:03:26;27;27;
47741;PMS5003;33504;52.066;6.096;2023-05-10T01:05:54;19;19;
47741;PMS5003;33504;52.066;6.096;2023-05-10T01:08:20;25;22;
47741;PMS5003;33504;52.066;6.096;2023-05-10T01:10:48;30;29;
47741;PMS5003;33504;52.066;6.096;2023-05-10T01:13:17;27;25;
47741;PMS5003;33504;52.066;6.096;2023-05-10T01:15:55;28;28;
47741;PMS5003;33504;52.066;6.096;2023-05-10T01:18:23;28;25;
47741;PMS5003;33504;52.066;6.096;2023-05-10T01:20:54;25;23;
47741;PMS5003;33504;52.066;6.096;2023-05-10T01:23:36;33;30;
47741;PMS5003;33504;52.066;6.096;2023-05-10T01:26:35;28;27;
47741;PMS5003;33504;52.066;6.096;2023-05-10T01:29:30;26;23;
47741;PMS5003;33504;52.066;6.096;2023-05-10T01:32:21;32;30;
47741;PMS5003;33504;52.066;6.096;2023-05-10T01:34:58;29;28;
47741;PMS5003;33504;52.066;6.096;2023-05-10T01:37:31;37;33;
47741;PMS5003;33504;52.066;6.096;2023-05-10T01:40:08;28;27;
47741;PMS5003;33504;52.066;6.096;2023-05-10T01:42:44;36;34;
47741;PMS5003;33504;52.066;6.096;2023-05-10T01:45:18;35;30;
47741;PMS5003;33504;52.066;6.096;2023-05-10T01:47:53;34;33;
47741;PMS5003;33504;52.066;6.096;2023-05-10T01:50:26;37;36;
47741;PMS5003;33504;52.066;6.096;2023-05-10T01:52:56;40;38;
47741;PMS5003;33504;52.066;6.096;2023-05-10T01:55:27;38;33;
47741;PMS5003;33504;52.066;6.096;2023-05-10T01:57:58;39;35;
47741;PMS5003;33504;52.066;6.096;2023-05-10T02:00:29;37;37;
47741;PMS5003;33504;52.066;6.096;2023-05-10T02:02:58;37;36;
47741;PMS5003;33504;52.066;6.096;2023-05-10T02:05:28;46;42;
47741;PMS5003;33504;52.066;6.096;2023-05-10T02:07:58;45;44;
47741;PMS5003;33504;52.066;6.096;2023-05-10T02:10:27;44;43;
47741;PMS5003;33504;52.066;6.096;2023-05-10T02:12:55;38;35;
47741;PMS5003;33504;52.066;6.096;2023-05-10T02:15:25;42;39;
47741;PMS5003;33504;52.066;6.096;2023-05-10T02:17:54;50;47;
47741;PMS5003;33504;52.066;6.096;2023-05-10T02:20:23;43;40;
47741;PMS5003;33504;52.066;6.096;2023-05-10T02:22:52;50;46;
47741;PMS5003;33504;52.066;6.096;2023-05-10T02:25:21;46;42;
47741;PMS5003;33504;52.066;6.096;2023-05-10T02:27:51;51;46;
47741;PMS5003;33504;52.066;6.096;2023-05-10T02:30:22;51;47;
47741;PMS5003;33504;52.066;6.096;2023-05-10T02:32:50;47;45;
47741;PMS5003;33504;52.066;6.096;2023-05-10T02:35:18;55;49;
47741;PMS5003;33504;52.066;6.096;2023-05-10T02:37:45;42;42;
47741;PMS5003;33504;52.066;6.096;2023-05-10T02:40:14;51;47;
47741;PMS5003;33504;52.066;6.096;2023-05-10T02:42:43;55;48;
47741;PMS5003;33504;52.066;6.096;2023-05-10T02:45:12;52;44;
47741;PMS5003;33504;52.066;6.096;2023-05-10T02:47:41;54;52;
47741;PMS5003;33504;52.066;6.096;2023-05-10T02:50:09;46;41;
47741;PMS5003;33504;52.066;6.096;2023-05-10T02:52:39;54;46;
47741;PMS5003;33504;52.066;6.096;2023-05-10T02:55:11;57;52;
47741;PMS5003;33504;52.066;6.096;2023-05-10T02:57:41;49;45;
47741;PMS5003;33504;52.066;6.096;2023-05-10T03:00:14;49;45;
47741;PMS5003;33504;52.066;6.096;2023-05-10T03:02:42;53;48;
47741;PMS5003;33504;52.066;6.096;2023-05-10T03:05:08;53;48;
47741;PMS5003;33504;52.066;6.096;2023-05-10T03:07:36;55;49;
47741;PMS5003;33504;52.066;6.096;2023-05-10T03:10:04;55;49;
47741;PMS5003;33504;52.066;6.096;2023-05-10T03:15:24;55;52;
47741;PMS5003;33504;52.066;6.096;2023-05-10T03:18:00;54;50;
47741;PMS5003;33504;52.066;6.096;2023-05-10T03:20:35;53;51;
47741;PMS5003;33504;52.066;6.096;2023-05-10T03:23:07;55;53;
47741;PMS5003;33504;52.066;6.096;2023-05-10T03:25:39;48;44;
47741;PMS5003;33504;52.066;6.096;2023-05-10T03:28:07;59;53;
47741;PMS5003;33504;52.066;6.096;2023-05-10T03:30:35;59;53;
47741;PMS5003;33504;52.066;6.096;2023-05-10T03:33:04;47;45;
47741;PMS5003;33504;52.066;6.096;2023-05-10T03:35:32;59;50;
47741;PMS5003;33504;52.066;6.096;2023-05-10T03:37:59;55;51;
47741;PMS5003;33504;52.066;6.096;2023-05-10T03:40:26;52;47;
47741;PMS5003;33504;52.066;6.096;2023-05-10T03:42:54;56;51;
47741;PMS5003;33504;52.066;6.096;2023-05-10T03:45:21;47;43;
47741;PMS5003;33504;52.066;6.096;2023-05-10T03:47:48;47;44;
47741;PMS5003;33504;52.066;6.096;2023-05-10T03:50:16;56;50;
47741;PMS5003;33504;52.066;6.096;2023-05-10T03:52:43;49;46;
47741;PMS5003;33504;52.066;6.096;2023-05-10T03:55:11;59;50;
47741;PMS5003;33504;52.066;6.096;2023-05-10T03:57:38;48;47;
47741;PMS5003;33504;52.066;6.096;2023-05-10T04:00:06;52;48;
47741;PMS5003;33504;52.066;6.096;2023-05-10T04:02:34;47;45;
47741;PMS5003;33504;52.066;6.096;2023-05-10T04:05:00;50;44;
47741;PMS5003;33504;52.066;6.096;2023-05-10T04:07:27;55;46;
47741;PMS5003;33504;52.066;6.096;2023-05-10T04:09:54;50;45;
47741;PMS5003;33504;52.066;6.096;2023-05-10T04:12:21;49;46;
47741;PMS5003;33504;52.066;6.096;2023-05-10T04:14:48;50;45;
47741;PMS5003;33504;52.066;6.096;2023-05-10T04:17:15;48;44;
47741;PMS5003;33504;52.066;6.096;2023-05-10T04:19:42;52;50;
47741;PMS5003;33504;52.066;6.096;2023-05-10T04:22:09;49;45;
47741;PMS5003;33504;52.066;6.096;2023-05-10T04:24:36;44;41;
47741;PMS5003;33504;52.066;6.096;2023-05-10T04:27:03;51;47;
47741;PMS5003;33504;52.066;6.096;2023-05-10T04:29:30;50;45;
47741;PMS5003;33504;52.066;6.096;2023-05-10T04:31:57;43;40;
47741;PMS5003;33504;52.066;6.096;2023-05-10T04:34:23;53;48;
47741;PMS5003;33504;52.066;6.096;2023-05-10T04:36:50;49;40;
47741;PMS5003;33504;52.066;6.096;2023-05-10T04:39:18;53;44;
47741;PMS5003;33504;52.066;6.096;2023-05-10T04:41:44;51;44;
47741;PMS5003;33504;52.066;6.096;2023-05-10T04:44:11;53;48;
47741;PMS5003;33504;52.066;6.096;2023-05-10T04:46:38;40;39;
47741;PMS5003;33504;52.066;6.096;2023-05-10T04:49:05;45;44;
47741;PMS5003;33504;52.066;6.096;2023-05-10T04:51:33;45;43;
47741;PMS5003;33504;52.066;6.096;2023-05-10T04:54:00;49;44;
47741;PMS5003;33504;52.066;6.096;2023-05-10T04:56:27;48;45;
47741;PMS5003;33504;52.066;6.096;2023-05-10T04:58:54;50;46;
47741;PMS5003;33504;52.066;6.096;2023-05-10T05:01:20;57;53;
47741;PMS5003;33504;52.066;6.096;2023-05-10T05:03:47;52;50;
47741;PMS5003;33504;52.066;6.096;2023-05-10T05:06:15;54;50;
47741;PMS5003;33504;52.066;6.096;2023-05-10T05:08:42;51;48;
47741;PMS5003;33504;52.066;6.096;2023-05-10T05:11:09;55;50;
47741;PMS5003;33504;52.066;6.096;2023-05-10T05:13:36;56;54;
47741;PMS5003;33504;52.066;6.096;2023-05-10T05:16:03;58;50;
47741;PMS5003;33504;52.066;6.096;2023-05-10T05:18:31;57;52;
47741;PMS5003;33504;52.066;6.096;2023-05-10T05:20:58;54;51;
47741;PMS5003;33504;52.066;6.096;2023-05-10T05:23:26;50;49;
47741;PMS5003;33504;52.066;6.096;2023-05-10T05:25:53;61;56;
47741;PMS5003;33504;52.066;6.096;2023-05-10T05:28:20;49;46;
47741;PMS5003;33504;52.066;6.096;2023-05-10T05:30:47;48;48;
47741;PMS5003;33504;52.066;6.096;2023-05-10T05:33:15;62;57;
47741;PMS5003;33504;52.066;6.096;2023-05-10T05:35:41;54;50;
47741;PMS5003;33504;52.066;6.096;2023-05-10T05:38:08;57;52;
47741;PMS5003;33504;52.066;6.096;2023-05-10T05:40:35;57;51;
47741;PMS5003;33504;52.066;6.096;2023-05-10T05:43:03;61;50;
47741;PMS5003;33504;52.066;6.096;2023-05-10T05:45:30;61;55;
47741;PMS5003;33504;52.066;6.096;2023-05-10T05:47:56;56;53;
47741;PMS5003;33504;52.066;6.096;2023-05-10T05:50:24;56;53;
47741;PMS5003;33504;52.066;6.096;2023-05-10T05:52:51;55;49;
47741;PMS5003;33504;52.066;6.096;2023-05-10T05:55:18;60;56;
47741;PMS5003;33504;52.066;6.096;2023-05-10T05:57:45;58;50;
47741;PMS5003;33504;52.066;6.096;2023-05-10T06:00:12;57;50;
47741;PMS5003;33504;52.066;6.096;2023-05-10T06:02:40;46;43;
47741;PMS5003;33504;52.066;6.096;2023-05-10T06:05:07;49;45;
47741;PMS5003;33504;52.066;6.096;2023-05-10T06:07:35;42;38;
47741;PMS5003;33504;52.066;6.096;2023-05-10T06:10:02;46;46;
47741;PMS5003;33504;52.066;6.096;2023-05-10T06:12:30;46;44;
47741;PMS5003;33504;52.066;6.096;2023-05-10T06:14:57;51;45;
47741;PMS5003;33504;52.066;6.096;2023-05-10T06:17:23;53;47;
47741;PMS5003;33504;52.066;6.096;2023-05-10T06:19:51;53;50;
47741;PMS5003;33504;52.066;6.096;2023-05-10T06:22:18;49;45;
47741;PMS5003;33504;52.066;6.096;2023-05-10T06:24:45;49;45;
47741;PMS5003;33504;52.066;6.096;2023-05-10T06:27:12;52;49;
47741;PMS5003;33504;52.066;6.096;2023-05-10T06:29:40;49;47;
47741;PMS5003;33504;52.066;6.096;2023-05-10T06:32:07;41;40;
47741;PMS5003;33504;52.066;6.096;2023-05-10T06:34:34;50;47;
47741;PMS5003;33504;52.066;6.096;2023-05-10T06:37:01;51;48;
47741;PMS5003;33504;52.066;6.096;2023-05-10T06:39:28;49;47;
47741;PMS5003;33504;52.066;6.096;2023-05-10T06:41:55;50;45;
47741;PMS5003;33504;52.066;6.096;2023-05-10T06:44:23;51;48;
47741;PMS5003;33504;52.066;6.096;2023-05-10T06:46:50;43;39;
47741;PMS5003;33504;52.066;6.096;2023-05-10T06:49:17;49;45;
47741;PMS5003;33504;52.066;6.096;2023-05-10T06:51:44;48;46;
47741;PMS5003;33504;52.066;6.096;2023-05-10T06:54:11;47;42;
47741;PMS5003;33504;52.066;6.096;2023-05-10T06:56:38;47;46;
47741;PMS5003;33504;52.066;6.096;2023-05-10T06:59:05;50;48;
47741;PMS5003;33504;52.066;6.096;2023-05-10T07:01:32;45;43;
47741;PMS5003;33504;52.066;6.096;2023-05-10T07:03:59;48;45;
47741;PMS5003;33504;52.066;6.096;2023-05-10T07:06:26;52;48;
47741;PMS5003;33504;52.066;6.096;2023-05-10T07:08:53;51;46;
47741;PMS5003;33504;52.066;6.096;2023-05-10T07:11:20;48;44;
47741;PMS5003;33504;52.066;6.096;2023-05-10T07:13:48;54;49;
47741;PMS5003;33504;52.066;6.096;2023-05-10T07:16:14;55;48;
47741;PMS5003;33504;52.066;6.096;2023-05-10T07:18:42;63;55;
47741;PMS5003;33504;52.066;6.096;2023-05-10T07:21:08;56;51;
47741;PMS5003;33504;52.066;6.096;2023-05-10T07:23:35;47;43;
47741;PMS5003;33504;52.066;6.096;2023-05-10T07:26:02;60;55;
47741;PMS5003;33504;52.066;6.096;2023-05-10T07:28:30;63;51;
47741;PMS5003;33504;52.066;6.096;2023-05-10T07:30:57;54;46;
47741;PMS5003;33504;52.066;6.096;2023-05-10T07:33:24;48;47;
47741;PMS5003;33504;52.066;6.096;2023-05-10T07:35:51;48;47;
47741;PMS5003;33504;52.066;6.096;2023-05-10T07:38:17;51;46;
47741;PMS5003;33504;52.066;6.096;2023-05-10T07:40:45;52;45;
47741;PMS5003;33504;52.066;6.096;2023-05-10T07:43:12;48;43;
47741;PMS5003;33504;52.066;6.096;2023-05-10T07:45:39;47;41;
47741;PMS5003;33504;52.066;6.096;2023-05-10T07:48:06;50;44;
47741;PMS5003;33504;52.066;6.096;2023-05-10T07:50:33;46;43;
47741;PMS5003;33504;52.066;6.096;2023-05-10T07:53:00;40;38;
47741;PMS5003;33504;52.066;6.096;2023-05-10T07:55:28;57;51;
47741;PMS5003;33504;52.066;6.096;2023-05-10T07:57:55;46;43;
47741;PMS5003;33504;52.066;6.096;2023-05-10T08:00:22;41;38;
47741;PMS5003;33504;52.066;6.096;2023-05-10T08:02:49;44;40;
47741;PMS5003;33504;52.066;6.096;2023-05-10T08:05:16;45;43;
47741;PMS5003;33504;52.066;6.096;2023-05-10T08:07:43;40;39;
47741;PMS5003;33504;52.066;6.096;2023-05-10T08:10:10;44;38;
47741;PMS5003;33504;52.066;6.096;2023-05-10T08:12:37;41;40;
47741;PMS5003;33504;52.066;6.096;2023-05-10T08:15:04;42;41;
47741;PMS5003;33504;52.066;6.096;2023-05-10T08:17:32;37;36;
47741;PMS5003;33504;52.066;6.096;2023-05-10T08:19:59;41;36;
47741;PMS5003;33504;52.066;6.096;2023-05-10T08:22:26;43;41;
47741;PMS5003;33504;52.066;6.096;2023-05-10T08:24:53;48;41;
47741;PMS5003;33504;52.066;6.096;2023-05-10T08:27:20;44;41;
47741;PMS5003;33504;52.066;6.096;2023-05-10T08:29:47;43;36;
47741;PMS5003;33504;52.066;6.096;2023-05-10T08:32:14;35;32;
47741;PMS5003;33504;52.066;6.096;2023-05-10T08:34:42;42;39;
47741;PMS5003;33504;52.066;6.096;2023-05-10T08:37:09;47;43;
47741;PMS5003;33504;52.066;6.096;2023-05-10T08:39:36;47;44;
47741;PMS5003;33504;52.066;6.096;2023-05-10T08:42:04;46;39;
47741;PMS5003;33504;52.066;6.096;2023-05-10T08:44:32;43;39;
47741;PMS5003;33504;52.066;6.096;2023-05-10T08:47:02;51;41;
47741;PMS5003;33504;52.066;6.096;2023-05-10T08:49:32;48;39;
47741;PMS5003;33504;52.066;6.096;2023-05-10T08:51:59;48;41;
47741;PMS5003;33504;52.066;6.096;2023-05-10T08:54:29;42;39;
47741;PMS5003;33504;52.066;6.096;2023-05-10T08:56:58;37;37;
47741;PMS5003;33504;52.066;6.096;2023-05-10T08:59:25;36;34;
47741;PMS5003;33504;52.066;6.096;2023-05-10T09:01:53;42;40;
47741;PMS5003;33504;52.066;6.096;2023-05-10T09:04:24;43;39;
47741;PMS5003;33504;52.066;6.096;2023-05-10T09:06:51;40;38;
47741;PMS5003;33504;52.066;6.096;2023-05-10T09:09:18;48;43;
47741;PMS5003;33504;52.066;6.096;2023-05-10T09:11:47;42;38;
47741;PMS5003;33504;52.066;6.096;2023-05-10T09:14:15;45;37;
47741;PMS5003;33504;52.066;6.096;2023-05-10T09:16:42;38;31;
47741;PMS5003;33504;52.066;6.096;2023-05-10T09:19:10;35;32;
47741;PMS5003;33504;52.066;6.096;2023-05-10T09:21:37;33;27;
47741;PMS5003;33504;52.066;6.096;2023-05-10T09:24:04;28;27;
47741;PMS5003;33504;52.066;6.096;2023-05-10T09:26:33;30;29;
47741;PMS5003;33504;52.066;6.096;2023-05-10T09:29:00;30;27;
47741;PMS5003;33504;52.066;6.096;2023-05-10T09:31:46;32;29;
47741;PMS5003;33504;52.066;6.096;2023-05-10T09:34:15;22;22;
47741;PMS5003;33504;52.066;6.096;2023-05-10T09:36:51;29;26;
47741;PMS5003;33504;52.066;6.096;2023-05-10T09:39:20;26;24;
47741;PMS5003;33504;52.066;6.096;2023-05-10T09:41:56;30;27;
47741;PMS5003;33504;52.066;6.096;2023-05-10T09:44:25;30;27;
47741;PMS5003;33504;52.066;6.096;2023-05-10T09:46:52;23;22;
47741;PMS5003;33504;52.066;6.096;2023-05-10T09:49:20;24;23;
47741;PMS5003;33504;52.066;6.096;2023-05-10T09:51:47;24;22;
47741;PMS5003;33504;52.066;6.096;2023-05-10T09:54:26;24;21;
47741;PMS5003;33504;52.066;6.096;2023-05-10T09:56:53;19;19;
47741;PMS5003;33504;52.066;6.096;2023-05-10T09:59:20;20;19;
47741;PMS5003;33504;52.066;6.096;2023-05-10T10:01:49;27;25;
47741;PMS5003;33504;52.066;6.096;2023-05-10T10:04:17;19;18;
47741;PMS5003;33504;52.066;6.096;2023-05-10T10:06:46;19;18;
47741;PMS5003;33504;52.066;6.096;2023-05-10T10:09:24;16;16;
47741;PMS5003;33504;52.066;6.096;2023-05-10T10:11:51;19;19;
47741;PMS5003;33504;52.066;6.096;2023-05-10T10:14:20;24;21;
47741;PMS5003;33504;52.066;6.096;2023-05-10T10:16:48;20;20;
47741;PMS5003;33504;52.066;6.096;2023-05-10T10:19:16;15;14;
47741;PMS5003;33504;52.066;6.096;2023-05-10T10:21:44;17;15;
47741;PMS5003;33504;52.066;6.096;2023-05-10T10:24:10;13;13;
47741;PMS5003;33504;52.066;6.096;2023-05-10T10:26:37;16;14;
47741;PMS5003;33504;52.066;6.096;2023-05-10T10:29:12;13;13;
47741;PMS5003;33504;52.066;6.096;2023-05-10T10:31:49;18;17;
47741;PMS5003;33504;52.066;6.096;2023-05-10T10:34:25;14;14;
47741;PMS5003;33504;52.066;6.096;2023-05-10T10:36:53;13;11;
47741;PMS5003;33504;52.066;6.096;2023-05-10T10:39:22;14;13;
47741;PMS5003;33504;52.066;6.096;2023-05-10T10:41:50;14;13;
47741;PMS5003;33504;52.066;6.096;2023-05-10T10:44:22;13;13;
47741;PMS5003;33504;52.066;6.096;2023-05-10T10:47:00;19;16;
47741;PMS5003;33504;52.066;6.096;2023-05-10T10:49:30;17;16;
47741;PMS5003;33504;52.066;6.096;2023-05-10T10:52:14;20;20;
47741;PMS5003;33504;52.066;6.096;2023-05-10T10:54:49;19;19;
47741;PMS5003;33504;52.066;6.096;2023-05-10T10:57:18;22;21;
47741;PMS5003;33504;52.066;6.096;2023-05-10T10:59:46;20;18;
47741;PMS5003;33504;52.066;6.096;2023-05-10T11:02:32;20;19;
47741;PMS5003;33504;52.066;6.096;2023-05-10T11:04:59;17;16;
47741;PMS5003;33504;52.066;6.096;2023-05-10T11:07:26;18;18;
47741;PMS5003;33504;52.066;6.096;2023-05-10T11:09:53;17;17;
47741;PMS5003;33504;52.066;6.096;2023-05-10T11:12:20;20;20;
47741;PMS5003;33504;52.066;6.096;2023-05-10T11:14:49;16;15;
47741;PMS5003;33504;52.066;6.096;2023-05-10T11:17:23;25;21;
47741;PMS5003;33504;52.066;6.096;2023-05-10T11:20:09;22;20;
47741;PMS5003;33504;52.066;6.096;2023-05-10T11:22:52;20;20;
47741;PMS5003;33504;52.066;6.096;2023-05-10T11:25:23;17;17;
47741;PMS5003;33504;52.066;6.096;2023-05-10T11:27:52;17;16;
47741;PMS5003;33504;52.066;6.096;2023-05-10T11:30:20;20;18;
47741;PMS5003;33504;52.066;6.096;2023-05-10T11:32:47;15;14;
47741;PMS5003;33504;52.066;6.096;2023-05-10T11:35:14;19;17;
47741;PMS5003;33504;52.066;6.096;2023-05-10T11:37:42;16;15;
47741;PMS5003;33504;52.066;6.096;2023-05-10T11:40:09;16;14;
47741;PMS5003;33504;52.066;6.096;2023-05-10T11:42:37;13;11;
47741;PMS5003;33504;52.066;6.096;2023-05-10T11:45:05;10;9;
47741;PMS5003;33504;52.066;6.096;2023-05-10T11:47:32;7;5;
47741;PMS5003;33504;52.066;6.096;2023-05-10T11:50:00;9;9;
47741;PMS5003;33504;52.066;6.096;2023-05-10T11:52:27;9;9;
47741;PMS5003;33504;52.066;6.096;2023-05-10T11:54:54;10;10;
47741;PMS5003;33504;52.066;6.096;2023-05-10T11:57:26;9;8;
47741;PMS5003;33504;52.066;6.096;2023-05-10T11:59:53;8;8;
47741;PMS5003;33504;52.066;6.096;2023-05-10T12:02:21;7;7;
47741;PMS5003;33504;52.066;6.096;2023-05-10T12:04:48;9;8;
47741;PMS5003;33504;52.066;6.096;2023-05-10T12:07:16;8;8;
47741;PMS5003;33504;52.066;6.096;2023-05-10T12:09:43;6;6;
47741;PMS5003;33504;52.066;6.096;2023-05-10T12:12:13;8;8;
47741;PMS5003;33504;52.066;6.096;2023-05-10T12:14:42;9;9;
47741;PMS5003;33504;52.066;6.096;2023-05-10T12:17:11;8;7;
47741;PMS5003;33504;52.066;6.096;2023-05-10T12:19:38;8;8;
47741;PMS5003;33504;52.066;6.096;2023-05-10T12:22:06;9;9;
47741;PMS5003;33504;52.066;6.096;2023-05-10T12:24:34;8;8;
47741;PMS5003;33504;52.066;6.096;2023-05-10T12:27:04;11;11;
47741;PMS5003;33504;52.066;6.096;2023-05-10T12:29:31;11;10;
47741;PMS5003;33504;52.066;6.096;2023-05-10T12:31:59;9;9;
47741;PMS5003;33504;52.066;6.096;2023-05-10T12:34:27;10;9;
47741;PMS5003;33504;52.066;6.096;2023-05-10T12:36:56;10;10;
47741;PMS5003;33504;52.066;6.096;2023-05-10T12:39:23;12;12;
47741;PMS5003;33504;52.066;6.096;2023-05-10T12:41:51;11;11;
47741;PMS5003;33504;52.066;6.096;2023-05-10T12:44:18;13;13;
47741;PMS5003;33504;52.066;6.096;2023-05-10T12:46:45;9;9;
47741;PMS5003;33504;52.066;6.096;2023-05-10T12:49:12;13;13;
47741;PMS5003;33504;52.066;6.096;2023-05-10T12:51:39;12;11;
47741;PMS5003;33504;52.066;6.096;2023-05-10T12:54:06;11;10;
47741;PMS5003;33504;52.066;6.096;2023-05-10T12:56:34;14;13;
47741;PMS5003;33504;52.066;6.096;2023-05-10T12:59:01;15;15;
47741;PMS5003;33504;52.066;6.096;2023-05-10T13:01:27;12;11;
47741;PMS5003;33504;52.066;6.096;2023-05-10T13:03:55;13;12;
47741;PMS5003;33504;52.066;6.096;2023-05-10T13:06:22;18;18;
47741;PMS5003;33504;52.066;6.096;2023-05-10T13:08:49;14;13;
47741;PMS5003;33504;52.066;6.096;2023-05-10T13:11:16;12;12;
47741;PMS5003;33504;52.066;6.096;2023-05-10T13:13:43;11;9;
47741;PMS5003;33504;52.066;6.096;2023-05-10T13:16:10;16;15;
47741;PMS5003;33504;52.066;6.096;2023-05-10T13:18:37;15;14;
47741;PMS5003;33504;52.066;6.096;2023-05-10T13:21:04;12;11;
47741;PMS5003;33504;52.066;6.096;2023-05-10T13:23:32;13;13;
47741;PMS5003;33504;52.066;6.096;2023-05-10T13:25:58;12;10;
47741;PMS5003;33504;52.066;6.096;2023-05-10T13:28:25;20;20;
47741;PMS5003;33504;52.066;6.096;2023-05-10T13:30:52;13;13;
47741;PMS5003;33504;52.066;6.096;2023-05-10T13:33:19;17;16;
47741;PMS5003;33504;52.066;6.096;2023-05-10T13:35:46;11;11;
47741;PMS5003;33504;52.066;6.096;2023-05-10T13:38:13;12;12;
47741;PMS5003;33504;52.066;6.096;2023-05-10T13:40:41;16;15;
47741;PMS5003;33504;52.066;6.096;2023-05-10T13:43:07;11;10;
47741;PMS5003;33504;52.066;6.096;2023-05-10T13:45:35;10;10;
47741;PMS5003;33504;52.066;6.096;2023-05-10T13:48:01;11;11;
47741;PMS5003;33504;52.066;6.096;2023-05-10T13:50:29;12;12;
47741;PMS5003;33504;52.066;6.096;2023-05-10T13:52:56;15;12;
47741;PMS5003;33504;52.066;6.096;2023-05-10T13:55:23;10;10;
47741;PMS5003;33504;52.066;6.096;2023-05-10T13:57:51;10;10;
47741;PMS5003;33504;52.066;6.096;2023-05-10T14:00:18;11;11;
47741;PMS5003;33504;52.066;6.096;2023-05-10T14:02:45;10;9;
47741;PMS5003;33504;52.066;6.096;2023-05-10T14:05:13;12;10;
47741;PMS5003;33504;52.066;6.096;2023-05-10T14:07:40;10;10;
47741;PMS5003;33504;52.066;6.096;2023-05-10T14:10:08;9;8;
47741;PMS5003;33504;52.066;6.096;2023-05-10T14:12:35;14;11;
47741;PMS5003;33504;52.066;6.096;2023-05-10T14:15:03;10;10;
47741;PMS5003;33504;52.066;6.096;2023-05-10T14:17:31;11;11;
47741;PMS5003;33504;52.066;6.096;2023-05-10T14:19:58;10;10;
47741;PMS5003;33504;52.066;6.096;2023-05-10T14:22:25;9;8;
47741;PMS5003;33504;52.066;6.096;2023-05-10T14:24:53;10;9;
47741;PMS5003;33504;52.066;6.096;2023-05-10T14:27:20;13;12;
47741;PMS5003;33504;52.066;6.096;2023-05-10T14:29:48;12;12;
47741;PMS5003;33504;52.066;6.096;2023-05-10T14:32:14;11;11;
47741;PMS5003;33504;52.066;6.096;2023-05-10T14:34:41;13;13;
47741;PMS5003;33504;52.066;6.096;2023-05-10T14:37:09;12;10;
47741;PMS5003;33504;52.066;6.096;2023-05-10T14:39:37;10;10;
47741;PMS5003;33504;52.066;6.096;2023-05-10T14:42:04;12;12;
47741;PMS5003;33504;52.066;6.096;2023-05-10T14:44:32;20;20;
47741;PMS5003;33504;52.066;6.096;2023-05-10T14:46:59;25;24;
47741;PMS5003;33504;52.066;6.096;2023-05-10T14:49:26;18;18;
47741;PMS5003;33504;52.066;6.096;2023-05-10T14:51:53;13;13;
47741;PMS5003;33504;52.066;6.096;2023-05-10T14:54:19;14;14;
47741;PMS5003;33504;52.066;6.096;2023-05-10T14:56:46;12;12;
47741;PMS5003;33504;52.066;6.096;2023-05-10T14:59:13;13;12;
47741;PMS5003;33504;52.066;6.096;2023-05-10T15:01:39;12;12;
47741;PMS5003;33504;52.066;6.096;2023-05-10T15:04:06;14;13;
47741;PMS5003;33504;52.066;6.096;2023-05-10T15:06:33;13;13;
47741;PMS5003;33504;52.066;6.096;2023-05-10T15:09:01;15;13;
47741;PMS5003;33504;52.066;6.096;2023-05-10T15:11:28;14;12;
47741;PMS5003;33504;52.066;6.096;2023-05-10T15:13:56;11;11;
47741;PMS5003;33504;52.066;6.096;2023-05-10T15:16:23;11;11;
47741;PMS5003;33504;52.066;6.096;2023-05-10T15:18:50;12;11;
47741;PMS5003;33504;52.066;6.096;2023-05-10T15:21:17;8;7;
47741;PMS5003;33504;52.066;6.096;2023-05-10T15:23:43;11;11;
47741;PMS5003;33504;52.066;6.096;2023-05-10T15:26:11;9;9;
47741;PMS5003;33504;52.066;6.096;2023-05-10T15:28:38;7;7;
47741;PMS5003;33504;52.066;6.096;2023-05-10T15:31:05;8;7;
47741;PMS5003;33504;52.066;6.096;2023-05-10T15:33:31;6;5;
47741;PMS5003;33504;52.066;6.096;2023-05-10T15:35:59;6;6;
47741;PMS5003;33504;52.066;6.096;2023-05-10T15:38:25;7;7;
47741;PMS5003;33504;52.066;6.096;2023-05-10T15:40:52;6;6;
47741;PMS5003;33504;52.066;6.096;2023-05-10T15:43:23;6;5;
47741;PMS5003;33504;52.066;6.096;2023-05-10T15:45:50;8;7;
47741;PMS5003;33504;52.066;6.096;2023-05-10T15:48:17;6;6;
47741;PMS5003;33504;52.066;6.096;2023-05-10T15:50:43;8;7;
47741;PMS5003;33504;52.066;6.096;2023-05-10T15:53:10;6;5;
47741;PMS5003;33504;52.066;6.096;2023-05-10T15:55:37;8;8;
47741;PMS5003;33504;52.066;6.096;2023-05-10T15:58:03;8;8;
47741;PMS5003;33504;52.066;6.096;2023-05-10T16:00:31;7;6;
47741;PMS5003;33504;52.066;6.096;2023-05-10T16:02:58;10;10;
47741;PMS5003;33504;52.066;6.096;2023-05-10T16:05:25;7;7;
47741;PMS5003;33504;52.066;6.096;2023-05-10T16:07:51;7;6;
47741;PMS5003;33504;52.066;6.096;2023-05-10T16:10:18;6;6;
47741;PMS5003;33504;52.066;6.096;2023-05-10T16:12:45;6;6;
47741;PMS5003;33504;52.066;6.096;2023-05-10T16:15:11;6;6;
47741;PMS5003;33504;52.066;6.096;2023-05-10T16:17:38;12;11;
47741;PMS5003;33504;52.066;6.096;2023-05-10T16:20:06;5;5;
47741;PMS5003;33504;52.066;6.096;2023-05-10T16:22:34;7;7;
47741;PMS5003;33504;52.066;6.096;2023-05-10T16:25:01;6;6;
47741;PMS5003;33504;52.066;6.096;2023-05-10T16:27:28;5;5;
47741;PMS5003;33504;52.066;6.096;2023-05-10T16:29:56;6;6;
47741;PMS5003;33504;52.066;6.096;2023-05-10T16:32:22;6;5;